createdAt,value
2022-08-30T00:00:29.158Z,3.05
2022-08-30T00:05:33.156Z,3.00
2022-08-30T00:10:38.592Z,3.58
2022-08-30T00:15:42.242Z,2.95
2022-08-30T00:20:46.838Z,3.53
2022-08-30T00:25:51.266Z,3.33
2022-08-30T00:30:54.713Z,3.40
2022-08-30T00:35:58.141Z,3.15
2022-08-30T00:41:02.638Z,3.85
2022-08-30T00:46:08.413Z,3.70
2022-08-30T00:51:14.072Z,3.05
2022-08-30T01:01:22.563Z,3.28
2022-08-30T01:06:26.157Z,3.33
2022-08-30T01:11:38.214Z,3.17
2022-08-30T01:16:43.825Z,3.20
2022-08-30T01:21:49.837Z,3.67
2022-08-30T01:26:54.918Z,3.92
2022-08-30T01:31:58.034Z,3.55
2022-08-30T01:37:02.209Z,3.88
2022-08-30T01:42:06.922Z,3.90
2022-08-30T01:47:10.675Z,4.30
2022-08-30T01:52:15.280Z,4.25
2022-08-30T01:57:22.933Z,5.03
2022-08-30T02:02:29.258Z,4.50
2022-08-30T02:07:32.485Z,4.72
2022-08-30T02:12:37.640Z,5.03
2022-08-30T02:17:41.693Z,4.63
2022-08-30T02:22:49.224Z,4.35
2022-08-30T02:27:54.011Z,5.03
2022-08-30T02:32:57.402Z,6.27
2022-08-30T02:38:00.492Z,5.57
2022-08-30T02:43:05.272Z,6.00
2022-08-30T02:48:08.362Z,4.87
2022-08-30T02:53:11.888Z,5.72
2022-08-30T02:58:20.598Z,5.15
2022-08-30T03:03:23.707Z,5.28
2022-08-30T03:08:26.963Z,4.50
2022-08-30T03:13:31.725Z,4.43
2022-08-30T03:18:34.984Z,4.72
2022-08-30T03:23:38.104Z,5.53
2022-08-30T03:28:43.632Z,4.82
2022-08-30T03:33:46.998Z,5.15
2022-08-30T03:38:50.084Z,4.80
2022-08-30T03:43:59.928Z,4.95
2022-08-30T03:49:03.577Z,4.60
2022-08-30T03:54:07.131Z,5.05
2022-08-30T03:59:11.690Z,4.43
2022-08-30T04:04:20.058Z,4.67
2022-08-30T04:09:24.848Z,5.28
2022-08-30T04:14:29.618Z,4.93
2022-08-30T04:19:32.745Z,5.82
2022-08-30T04:24:35.959Z,4.55
2022-08-30T04:29:40.984Z,3.97
2022-08-30T04:34:44.108Z,4.90
2022-08-30T04:39:48.816Z,4.60
2022-08-30T04:44:53.242Z,4.13
2022-08-30T04:49:56.567Z,5.03
2022-08-30T04:55:00.189Z,4.82
2022-08-30T05:00:07.609Z,4.88
2022-08-30T05:05:29.450Z,5.03
2022-08-30T05:10:32.646Z,5.20
2022-08-30T05:15:37.937Z,4.70
2022-08-30T05:20:41.961Z,5.93
2022-08-30T05:25:46.108Z,4.75
2022-08-30T05:30:50.494Z,5.68
2022-08-30T05:35:53.676Z,5.77
2022-08-30T05:40:56.797Z,4.75
2022-08-30T05:46:03.174Z,5.05
2022-08-30T05:51:08.775Z,5.07
2022-08-30T05:56:14.402Z,4.93
2022-08-30T06:01:24.941Z,4.50
2022-08-30T06:06:29.476Z,5.13
2022-08-30T06:11:35.927Z,5.28
2022-08-30T06:16:45.883Z,4.40
2022-08-30T06:21:51.281Z,4.38
2022-08-30T06:26:54.706Z,3.78
2022-08-30T06:31:59.294Z,5.18
2022-08-30T06:37:02.689Z,4.90
2022-08-30T06:42:06.625Z,4.90
2022-08-30T06:47:11.539Z,4.43
2022-08-30T06:52:15.297Z,5.05
2022-08-30T06:57:18.887Z,4.30
2022-08-30T07:02:24.185Z,4.78
2022-08-30T07:07:28.111Z,3.70
2022-08-30T07:12:33.172Z,4.68
2022-08-30T07:17:56.428Z,4.95
2022-08-30T07:22:59.841Z,4.85
2022-08-30T07:28:04.519Z,4.95
2022-08-30T07:33:09.692Z,5.35
2022-08-30T07:38:14.466Z,4.97
2022-08-30T07:43:18.187Z,5.30
2022-08-30T07:48:23.089Z,4.82
2022-08-30T07:53:26.560Z,4.70
2022-08-30T07:58:29.955Z,4.03
2022-08-30T08:03:35.245Z,5.10
2022-08-30T08:08:39.929Z,3.28
2022-08-30T08:13:53.143Z,2.72
2022-08-30T08:18:59.282Z,1.73
2022-08-30T08:24:03.550Z,1.88
2022-08-30T08:29:08.766Z,2.40
2022-08-30T08:34:14.222Z,1.95
2022-08-30T08:39:17.954Z,1.50
2022-08-30T08:44:34.406Z,1.70
2022-08-30T08:49:42.365Z,1.90
2022-08-30T08:54:52.340Z,1.23
2022-08-30T08:59:55.884Z,1.60
2022-08-30T09:05:02.631Z,1.17
2022-08-30T09:10:07.234Z,1.05
2022-08-30T09:15:16.920Z,0.87
2022-08-30T09:20:32.308Z,1.25
2022-08-30T09:25:41.223Z,1.00
2022-08-30T09:31:00.591Z,1.00
2022-08-30T09:36:19.959Z,1.10
2022-08-30T09:41:30.168Z,1.10
2022-08-30T09:46:34.328Z,0.90
2022-08-30T09:51:47.189Z,1.10
2022-08-30T09:57:01.439Z,1.17
2022-08-30T10:02:15.922Z,0.90
2022-08-30T10:07:28.998Z,0.60
2022-08-30T10:12:40.406Z,0.95
2022-08-30T10:17:51.534Z,0.60
2022-08-30T10:23:04.203Z,0.80
2022-08-30T10:28:14.687Z,0.70
2022-08-30T10:33:22.804Z,0.50
2022-08-30T10:38:35.386Z,0.60
2022-08-30T10:43:50.980Z,0.88
2022-08-30T10:48:56.493Z,0.65
2022-08-30T10:59:07.696Z,0.95
2022-08-30T11:04:47.096Z,1.00
2022-08-30T11:10:08.889Z,1.25
2022-08-30T11:15:16.764Z,0.80
2022-08-30T11:20:29.672Z,0.85
2022-08-30T11:25:57.711Z,0.80
2022-08-30T11:31:06.834Z,0.80
2022-08-30T11:36:12.447Z,0.85
2022-08-30T11:41:32.333Z,0.93
2022-08-30T11:46:39.764Z,0.90
2022-08-30T11:57:37.929Z,2.50
2022-08-30T12:02:48.865Z,1.27
2022-08-30T12:07:58.552Z,1.63
2022-08-30T12:13:03.815Z,1.00
2022-08-30T12:18:28.696Z,1.60
2022-08-30T12:23:44.518Z,1.63
2022-08-30T12:28:52.519Z,1.83
2022-08-30T12:34:01.848Z,2.22
2022-08-30T12:39:11.872Z,2.22
2022-08-30T12:44:21.032Z,2.13
2022-08-30T12:49:27.207Z,3.08
2022-08-30T12:54:31.124Z,5.38
2022-08-30T12:59:54.186Z,1.75
2022-08-30T13:05:34.306Z,1.70
2022-08-30T13:10:48.354Z,1.50
2022-08-30T13:15:53.764Z,1.27
2022-08-30T13:21:11.541Z,1.63
2022-08-30T13:26:20.499Z,1.63
2022-08-30T13:31:30.461Z,1.15
2022-08-30T13:36:37.580Z,1.35
2022-08-30T13:41:40.932Z,1.33
2022-08-30T13:46:53.918Z,0.90
2022-08-30T13:52:19.338Z,1.30
2022-08-30T14:02:54.484Z,1.10
2022-08-30T14:07:59.091Z,1.00
2022-08-30T14:13:08.807Z,1.20
2022-08-30T14:18:17.792Z,1.35
2022-08-30T14:23:22.259Z,1.13
2022-08-30T14:28:29.862Z,1.00
2022-08-30T14:33:36.024Z,1.40
2022-08-30T14:43:46.182Z,1.05
2022-08-30T14:48:51.092Z,1.33
2022-08-30T14:53:54.869Z,1.10
2022-08-30T14:59:02.620Z,1.30
2022-08-30T15:04:10.387Z,1.30
2022-08-30T15:09:19.161Z,1.58
2022-08-30T15:14:28.080Z,1.15
2022-08-30T15:19:33.325Z,1.17
2022-08-30T15:24:37.467Z,1.33
2022-08-30T15:29:41.122Z,1.40
2022-08-30T15:34:46.026Z,1.38
2022-08-30T15:39:59.368Z,1.08
2022-08-30T15:45:03.724Z,1.13
2022-08-30T15:50:09.612Z,1.23
2022-08-30T15:55:13.046Z,1.02
2022-08-30T16:00:17.224Z,1.52
2022-08-30T16:05:23.773Z,1.10
2022-08-30T16:10:29.592Z,1.30
2022-08-30T16:20:40.025Z,1.23
2022-08-30T16:25:43.851Z,1.42
2022-08-30T16:30:47.385Z,1.23
2022-08-30T16:35:56.541Z,1.52
2022-08-30T16:41:04.614Z,1.27
2022-08-30T16:46:10.938Z,1.10
2022-08-30T16:51:17.553Z,1.98
2022-08-30T16:56:24.435Z,1.20
2022-08-30T17:01:31.848Z,1.13
2022-08-30T17:06:38.128Z,1.27
2022-08-30T17:11:41.693Z,1.27
2022-08-30T17:16:45.295Z,1.13
2022-08-30T17:21:50.944Z,1.00
2022-08-30T17:26:54.716Z,1.73
2022-08-30T17:31:58.498Z,2.30
2022-08-30T17:37:04.371Z,1.50
2022-08-30T17:42:08.334Z,2.00
2022-08-30T17:47:12.058Z,1.92
2022-08-30T17:52:16.854Z,1.67
2022-08-30T18:02:27.885Z,1.73
2022-08-30T18:07:35.648Z,2.20
2022-08-30T18:12:39.498Z,2.00
2022-08-30T18:17:49.022Z,2.03
2022-08-30T18:22:55.692Z,2.33
2022-08-30T18:27:59.380Z,2.00
2022-08-30T18:33:02.954Z,1.70
2022-08-30T18:38:11.331Z,1.80
2022-08-30T18:43:15.805Z,2.13
2022-08-30T18:48:20.315Z,1.90
2022-08-30T18:53:29.138Z,2.10
2022-08-30T18:58:34.926Z,1.90
2022-08-30T19:03:38.566Z,2.03
2022-08-30T19:08:45.867Z,2.22
2022-08-30T19:13:49.320Z,2.63
2022-08-30T19:18:54.717Z,2.75
2022-08-30T19:23:59.592Z,2.58
2022-08-30T19:29:03.149Z,2.92
2022-08-30T19:34:06.905Z,2.42
2022-08-30T19:39:11.792Z,2.40
2022-08-30T19:49:19.342Z,2.58
2022-08-30T20:46:50.812Z,2.60
2022-08-30T20:51:55.340Z,2.63
2022-08-30T20:56:58.668Z,2.85
2022-08-30T21:02:05.450Z,2.80
2022-08-30T21:07:08.992Z,2.80
2022-08-30T21:12:12.319Z,2.33
2022-08-30T21:17:17.969Z,2.67
2022-08-30T21:22:21.557Z,3.17
2022-08-30T21:27:25.059Z,2.15
2022-08-30T21:32:29.895Z,2.38
2022-08-30T21:37:36.133Z,2.30
2022-08-30T21:42:40.147Z,2.13
2022-08-30T22:08:47.648Z,1.50
